createdAt,value
2019-06-08T00:00:22.552Z,939.3
2019-06-08T00:01:20.562Z,939.3
2019-06-08T00:02:20.660Z,939.3
2019-06-08T00:03:20.664Z,939.2
2019-06-08T00:04:22.858Z,939.3
2019-06-08T00:05:23.091Z,939.4
2019-06-08T00:06:23.296Z,939.2
2019-06-08T00:07:24.422Z,939.2
2019-06-08T00:08:26.338Z,939.5
2019-06-08T00:09:29.281Z,939.5
2019-06-08T00:10:31.236Z,939.5
2019-06-08T00:11:28.912Z,939.5
2019-06-08T00:12:29.671Z,939.3
2019-06-08T00:13:31.090Z,939.4
2019-06-08T00:14:32.489Z,939.4
2019-06-08T00:15:33.876Z,939.5
2019-06-08T00:16:35.281Z,939.4
2019-06-08T00:17:44.549Z,939.5
2019-06-08T00:18:37.908Z,939.5
2019-06-08T00:19:39.310Z,939.6
2019-06-08T00:20:40.699Z,939.5
2019-06-08T00:21:42.093Z,939.6
2019-06-08T00:22:42.673Z,939.6
2019-06-08T00:23:43.816Z,939.6
2019-06-08T00:24:44.943Z,939.7
2019-06-08T00:25:46.074Z,939.6
2019-06-08T00:26:47.208Z,939.7
2019-06-08T00:27:48.596Z,939.6
2019-06-08T00:28:50.034Z,939.7
2019-06-08T00:29:51.419Z,939.7
2019-06-08T00:30:52.829Z,939.6
2019-06-08T00:31:54.211Z,939.6
2019-06-08T00:32:54.770Z,939.6
2019-06-08T00:33:55.933Z,939.6
2019-06-08T00:34:57.324Z,939.7
2019-06-08T00:35:58.732Z,938
2019-06-08T00:37:00.117Z,939.7
2019-06-08T00:38:01.525Z,939.7
2019-06-08T00:39:02.947Z,939.7
2019-06-08T00:40:04.337Z,939.7
2019-06-08T00:41:05.730Z,939.7
2019-06-08T00:42:07.137Z,939.8
2019-06-08T00:43:07.902Z,939.8
2019-06-08T00:44:09.319Z,939.7
2019-06-08T00:45:10.721Z,939.8
2019-06-08T00:46:12.114Z,939.7
2019-06-08T00:47:13.521Z,939.8
2019-06-08T00:48:14.907Z,939.8
2019-06-08T00:49:16.479Z,939.9
2019-06-08T00:50:18.658Z,939.9
2019-06-08T00:51:19.127Z,939.9
2019-06-08T00:52:21.023Z,940
2019-06-08T00:53:21.269Z,939.9
2019-06-08T00:54:23.475Z,940
2019-06-08T00:55:23.742Z,940
2019-06-08T00:56:25.946Z,939.9
2019-06-08T00:57:26.015Z,939.8
2019-06-08T00:58:26.405Z,940
2019-06-08T00:59:27.835Z,940
2019-06-08T01:00:30.707Z,940
2019-06-08T01:01:33.522Z,940.1
2019-06-08T01:02:32.215Z,940
2019-06-08T01:03:31.965Z,940.2
2019-06-08T01:04:34.505Z,940
2019-06-08T01:05:35.609Z,940
2019-06-08T01:06:35.721Z,940.1
2019-06-08T01:07:37.120Z,940
2019-06-08T01:08:38.515Z,940.1
2019-06-08T01:09:39.685Z,940.2
2019-06-08T01:10:40.802Z,940.1
2019-06-08T01:11:42.197Z,940.1
2019-06-08T01:12:43.599Z,940.1
2019-06-08T01:13:44.093Z,940.1
2019-06-08T01:14:45.247Z,940.2
2019-06-08T01:15:46.659Z,940.2
2019-06-08T01:16:48.045Z,940
2019-06-08T01:18:01.902Z,940.2
2019-06-08T01:18:50.579Z,940.2
2019-06-08T01:19:51.995Z,940.2
2019-06-08T01:20:53.385Z,940.1
2019-06-08T01:21:54.779Z,940.2
2019-06-08T01:22:56.171Z,940.1
2019-06-08T01:23:57.033Z,940.3
2019-06-08T01:24:58.465Z,940.3
2019-06-08T01:25:59.859Z,940.3
2019-06-08T01:27:01.253Z,940.3
2019-06-08T01:28:02.645Z,940.2
2019-06-08T01:29:04.043Z,940.4
2019-06-08T01:30:05.457Z,940.4
2019-06-08T01:31:06.862Z,940.3
2019-06-08T01:32:07.980Z,940.2
2019-06-08T01:33:09.114Z,940.3
2019-06-08T01:34:09.636Z,940.3
2019-06-08T01:35:11.048Z,940.3
2019-06-08T01:36:12.445Z,940.2
2019-06-08T01:37:13.865Z,940.3
2019-06-08T01:38:15.233Z,940
2019-06-08T01:39:16.624Z,940.3
2019-06-08T01:40:18.038Z,940.3
2019-06-08T01:41:19.426Z,940.3
2019-06-08T01:42:21.407Z,940.3
2019-06-08T01:43:21.883Z,940.2
2019-06-08T01:44:23.525Z,940.2
2019-06-08T01:45:23.905Z,940.2
2019-06-08T01:46:25.861Z,940.2
2019-06-08T01:47:26.205Z,940.2
2019-06-08T01:48:28.192Z,940.2
2019-06-08T01:49:30.545Z,940.3
2019-06-08T01:50:30.526Z,940.2
2019-06-08T01:51:30.647Z,940.2
2019-06-08T01:52:32.963Z,940.2
2019-06-08T01:53:33.121Z,940.3
2019-06-08T01:54:36.787Z,940.2
2019-06-08T01:55:34.918Z,940.1
2019-06-08T01:56:36.588Z,940.2
2019-06-08T01:57:37.005Z,940.3
2019-06-08T01:58:38.856Z,940.2
2019-06-08T01:59:38.979Z,940.2
2019-06-08T02:00:47.141Z,940.2
2019-06-08T02:01:41.479Z,940.2
2019-06-08T02:02:42.612Z,940.3
2019-06-08T02:03:44.000Z,940.3
2019-06-08T02:04:44.768Z,940.3
2019-06-08T02:05:46.173Z,940.4
2019-06-08T02:06:47.602Z,940.4
2019-06-08T02:07:48.992Z,940.3
2019-06-08T02:08:50.386Z,940.4
2019-06-08T02:09:51.775Z,940.3
2019-06-08T02:10:53.198Z,940.4
2019-06-08T02:11:54.326Z,940.3
2019-06-08T02:12:55.722Z,940.3
2019-06-08T02:13:57.114Z,940.3
2019-06-08T02:14:58.069Z,940.2
2019-06-08T02:15:59.486Z,940.4
2019-06-08T02:17:00.882Z,940.3
2019-06-08T02:18:02.283Z,940.2
2019-06-08T02:19:03.687Z,940.4
2019-06-08T02:20:05.067Z,940.2
2019-06-08T02:21:06.513Z,940.3
2019-06-08T02:22:07.872Z,940.4
2019-06-08T02:23:09.260Z,940.3
2019-06-08T02:24:10.656Z,940.4
2019-06-08T02:25:11.440Z,940.3
2019-06-08T02:26:12.860Z,940.3
2019-06-08T02:27:14.254Z,940.4
2019-06-08T02:28:15.642Z,940.4
2019-06-08T02:29:17.077Z,940.4
2019-06-08T02:30:18.462Z,938.8
2019-06-08T02:31:19.642Z,940.5
2019-06-08T02:32:21.016Z,940.4
2019-06-08T02:33:22.418Z,940.5
2019-06-08T02:34:23.812Z,940.5
2019-06-08T02:35:24.578Z,940.5
2019-06-08T02:36:26.009Z,940.5
2019-06-08T02:37:28.652Z,940.4
2019-06-08T02:38:29.735Z,940.5
2019-06-08T02:39:30.366Z,940.6
2019-06-08T02:40:30.217Z,940.5
2019-06-08T02:41:30.961Z,940.6
2019-06-08T02:42:37.557Z,940.6
2019-06-08T02:43:35.652Z,940.6
2019-06-08T02:44:37.347Z,940.6
2019-06-08T02:45:38.885Z,940.6
2019-06-08T02:46:40.371Z,940.5
2019-06-08T02:47:36.625Z,940.6
2019-06-08T02:49:00.023Z,940.5
2019-06-08T02:49:37.601Z,940.7
2019-06-08T02:50:40.437Z,940.7
2019-06-08T02:51:43.465Z,940.5
2019-06-08T02:52:43.974Z,940.7
2019-06-08T02:53:43.754Z,940.7
2019-06-08T02:54:46.522Z,940.7
2019-06-08T02:55:44.808Z,940.7
2019-06-08T02:56:46.520Z,940.7
2019-06-08T02:57:45.888Z,940.7
2019-06-08T02:58:47.310Z,940.8
2019-06-08T02:59:48.688Z,940.8
2019-06-08T03:00:49.821Z,940.8
2019-06-08T03:01:50.960Z,940.7
2019-06-08T03:02:52.087Z,940.7
2019-06-08T03:03:53.216Z,940.7
2019-06-08T03:04:54.345Z,940.7
2019-06-08T03:05:55.114Z,940.7
2019-06-08T03:06:56.530Z,940.7
2019-06-08T03:07:57.667Z,940.7
2019-06-08T03:08:58.796Z,940.7
2019-06-08T03:09:59.927Z,940.7
2019-06-08T03:11:01.046Z,940.7
2019-06-08T03:12:02.456Z,940.7
2019-06-08T03:13:03.846Z,940.8
2019-06-08T03:14:04.975Z,940.8
2019-06-08T03:15:06.105Z,940.9
2019-06-08T03:16:06.684Z,940.7
2019-06-08T03:17:08.091Z,940.9
2019-06-08T03:18:09.498Z,940.8
2019-06-08T03:19:28.339Z,940.8
2019-06-08T03:20:11.593Z,940.8
2019-06-08T03:21:12.710Z,940.8
2019-06-08T03:22:13.844Z,940.9
2019-06-08T03:23:14.979Z,940.9
2019-06-08T03:24:16.101Z,940.9
2019-06-08T03:25:17.236Z,941
2019-06-08T03:26:18.916Z,941
2019-06-08T03:27:19.140Z,941
2019-06-08T03:28:20.533Z,941
2019-06-08T03:29:21.923Z,940.9
2019-06-08T03:30:25.438Z,941
2019-06-08T03:31:24.886Z,941
2019-06-08T03:32:26.042Z,941
2019-06-08T03:33:27.653Z,941
2019-06-08T03:34:28.123Z,941
2019-06-08T03:35:29.526Z,941.1
2019-06-08T03:36:30.338Z,941
2019-06-08T03:37:33.224Z,940.8
2019-06-08T03:38:33.760Z,940
2019-06-08T03:39:35.135Z,941.1
2019-06-08T03:40:33.995Z,941.2
2019-06-08T03:41:36.190Z,941.2
2019-06-08T03:42:35.646Z,941.2
2019-06-08T03:43:37.546Z,941.2
2019-06-08T03:44:42.872Z,941.2
2019-06-08T03:45:40.750Z,941.2
2019-06-08T03:46:40.972Z,941.3
2019-06-08T03:47:45.609Z,941.2
2019-06-08T03:48:46.822Z,941.1
2019-06-08T03:50:01.818Z,941.3
2019-06-08T03:50:49.066Z,941.3
2019-06-08T03:51:53.873Z,941.3
2019-06-08T03:52:46.234Z,941.3
2019-06-08T03:53:52.076Z,941.3
2019-06-08T03:54:52.181Z,941.3
2019-06-08T03:55:52.608Z,941.1
2019-06-08T03:56:51.407Z,941.3
2019-06-08T03:57:50.534Z,941.3
2019-06-08T03:58:53.581Z,941.3
2019-06-08T03:59:53.243Z,941.1
2019-06-08T04:00:54.600Z,940.3
2019-06-08T04:01:55.377Z,941.2
2019-06-08T04:02:55.510Z,941.4
2019-06-08T04:03:59.843Z,941.4
2019-06-08T04:04:57.163Z,941.3
2019-06-08T04:05:58.560Z,941.4
2019-06-08T04:06:59.327Z,941.4
2019-06-08T04:08:00.770Z,941.3
2019-06-08T04:09:02.156Z,941.4
2019-06-08T04:10:03.550Z,941.3
2019-06-08T04:11:04.966Z,941.4
2019-06-08T04:12:06.340Z,941.2
2019-06-08T04:13:11.007Z,941.2
2019-06-08T04:14:08.957Z,941.4
2019-06-08T04:15:09.777Z,941.4
2019-06-08T04:16:11.177Z,941.5
2019-06-08T04:17:11.998Z,941.4
2019-06-08T04:18:13.419Z,941.5
2019-06-08T04:19:14.544Z,941.5
2019-06-08T04:20:15.678Z,941.5
2019-06-08T04:21:17.066Z,941.4
2019-06-08T04:22:18.202Z,939.8
2019-06-08T04:23:19.337Z,941.5
2019-06-08T04:24:20.465Z,941.5
2019-06-08T04:25:21.606Z,941.5
2019-06-08T04:26:22.727Z,941.5
2019-06-08T04:27:23.242Z,941.5
2019-06-08T04:28:24.397Z,941.5
2019-06-08T04:29:25.805Z,941.5
2019-06-08T04:30:27.206Z,941.5
2019-06-08T04:31:28.606Z,941.5
2019-06-08T04:32:29.739Z,941.6
2019-06-08T04:33:30.895Z,940.4
2019-06-08T04:34:32.296Z,941.4
2019-06-08T04:35:33.686Z,941.6
2019-06-08T04:36:35.091Z,940.3
2019-06-08T04:37:35.844Z,941.5
2019-06-08T04:38:38.899Z,941.4
2019-06-08T04:39:38.430Z,941.6
2019-06-08T04:40:41.436Z,941.7
2019-06-08T04:41:42.599Z,941.5
2019-06-08T04:42:43.921Z,941.6
2019-06-08T04:43:47.221Z,941.4
2019-06-08T04:44:49.301Z,941.6
2019-06-08T04:45:50.041Z,941.6
2019-06-08T04:46:47.124Z,941.5
2019-06-08T04:47:50.238Z,941.6
2019-06-08T04:48:50.949Z,941.6
2019-06-08T04:49:51.818Z,941.6
2019-06-08T04:50:49.604Z,941.7
2019-06-08T04:51:52.896Z,941.6
2019-06-08T04:52:53.140Z,941.7
2019-06-08T04:53:54.834Z,941.7
2019-06-08T04:54:55.156Z,941.7
2019-06-08T04:55:54.772Z,941.7
2019-06-08T04:56:54.897Z,941.8
2019-06-08T04:57:56.341Z,941.7
2019-06-08T04:58:56.491Z,941.8
2019-06-08T04:59:57.922Z,941.8
2019-06-08T05:00:59.035Z,941.7
2019-06-08T05:02:02.942Z,941.8
2019-06-08T05:03:01.305Z,941.8
2019-06-08T05:04:02.479Z,941.8
2019-06-08T05:05:03.869Z,941.9
2019-06-08T05:06:05.273Z,941.7
2019-06-08T05:07:06.670Z,941.9
2019-06-08T05:08:07.604Z,941.9
2019-06-08T05:09:09.036Z,941.9
2019-06-08T05:10:10.161Z,942
2019-06-08T05:11:11.545Z,941.9
2019-06-08T05:12:12.941Z,942
2019-06-08T05:13:14.065Z,942
2019-06-08T05:14:15.512Z,942
2019-06-08T05:15:16.639Z,942
2019-06-08T05:16:20.903Z,941.8
2019-06-08T05:17:19.265Z,942
2019-06-08T05:18:20.089Z,942
2019-06-08T05:19:21.508Z,942
2019-06-08T05:20:37.484Z,942.1
2019-06-08T05:21:23.493Z,942.1
2019-06-08T05:22:24.936Z,942
2019-06-08T05:23:26.345Z,942.1
2019-06-08T05:24:27.500Z,942.1
2019-06-08T05:25:28.895Z,942.2
2019-06-08T05:26:30.287Z,942
2019-06-08T05:27:31.693Z,942.2
2019-06-08T05:28:32.660Z,942.2
2019-06-08T05:29:33.072Z,942.2
2019-06-08T05:30:34.473Z,942.2
2019-06-08T05:31:35.856Z,942
2019-06-08T05:32:37.284Z,942.2
2019-06-08T05:33:39.183Z,942.2
2019-06-08T05:34:39.404Z,942.2
2019-06-08T05:35:41.340Z,942.3
2019-06-08T05:36:41.490Z,942.3
2019-06-08T05:37:43.632Z,942.3
2019-06-08T05:38:43.442Z,942.2
2019-06-08T05:39:45.771Z,942.3
2019-06-08T05:40:45.919Z,942.3
2019-06-08T05:41:47.598Z,942.3
2019-06-08T05:42:50.910Z,942.3
2019-06-08T05:43:49.912Z,942.3
2019-06-08T05:44:51.081Z,942.3
2019-06-08T05:45:51.481Z,942.3
2019-06-08T05:46:53.307Z,942.5
2019-06-08T05:47:55.322Z,942.5
2019-06-08T05:48:55.733Z,942.3
2019-06-08T05:49:55.489Z,942.5
2019-06-08T05:51:09.673Z,942.4
2019-06-08T05:51:56.939Z,942.4
2019-06-08T05:52:58.335Z,942.5
2019-06-08T05:54:02.802Z,942.5
2019-06-08T05:55:00.434Z,942.5
2019-06-08T05:56:01.816Z,942.4
2019-06-08T05:57:02.945Z,942.6
2019-06-08T05:58:04.080Z,942.6
2019-06-08T05:59:04.576Z,942.6
2019-06-08T06:00:14.595Z,942.6
2019-06-08T06:01:06.918Z,942.7
2019-06-08T06:02:08.300Z,942.7
2019-06-08T06:03:09.685Z,942.7
2019-06-08T06:04:11.178Z,942.7
2019-06-08T06:05:12.581Z,942.7
2019-06-08T06:06:13.977Z,942.6
2019-06-08T06:07:15.103Z,942.7
2019-06-08T06:08:19.082Z,942.9
2019-06-08T06:09:16.960Z,942.7
2019-06-08T06:10:18.121Z,942.8
2019-06-08T06:11:19.520Z,942.8
2019-06-08T06:12:20.928Z,942.8
2019-06-08T06:13:22.306Z,942.8
2019-06-08T06:14:23.701Z,942.9
2019-06-08T06:15:25.127Z,942.8
2019-06-08T06:16:26.521Z,942.9
2019-06-08T06:17:27.918Z,942.9
2019-06-08T06:18:29.362Z,942.8
2019-06-08T06:19:30.112Z,942.9
2019-06-08T06:20:31.562Z,942.8
2019-06-08T06:21:35.518Z,942.8
2019-06-08T06:22:33.893Z,942.8
2019-06-08T06:23:35.286Z,942.7
2019-06-08T06:24:36.692Z,942.8
2019-06-08T06:25:38.125Z,942.8
2019-06-08T06:26:39.524Z,942.9
2019-06-08T06:27:41.334Z,942.7
2019-06-08T06:28:41.474Z,942.8
2019-06-08T06:29:43.383Z,942.8
2019-06-08T06:30:44.150Z,942.9
2019-06-08T06:31:43.642Z,942.7
2019-06-08T06:32:45.971Z,941.3
2019-06-08T06:33:47.914Z,942.9
2019-06-08T06:34:47.896Z,942.8
2019-06-08T06:35:48.084Z,942.9
2019-06-08T06:36:49.815Z,942.8
2019-06-08T06:37:55.498Z,942.9
2019-06-08T06:38:50.572Z,942.9
2019-06-08T06:39:52.222Z,942.9
2019-06-08T06:40:52.512Z,943
2019-06-08T06:41:55.184Z,942.3
2019-06-08T06:42:55.415Z,943
2019-06-08T06:43:55.527Z,943
2019-06-08T06:44:56.665Z,943
2019-06-08T06:45:57.822Z,943.1
2019-06-08T06:46:59.215Z,943.1
2019-06-08T06:48:00.624Z,943
2019-06-08T06:49:01.752Z,943.1
2019-06-08T06:50:02.508Z,943
2019-06-08T06:51:03.926Z,943.1
2019-06-08T06:52:05.324Z,943.1
2019-06-08T06:53:06.730Z,943
2019-06-08T06:54:08.142Z,943.2
2019-06-08T06:55:09.534Z,943.2
2019-06-08T06:56:10.694Z,943.2
2019-06-08T06:57:12.093Z,942.1
2019-06-08T06:58:13.485Z,943.1
2019-06-08T06:59:14.880Z,943.2
2019-06-08T07:00:15.638Z,943.2
2019-06-08T07:01:17.073Z,941.7
2019-06-08T07:02:18.192Z,943.2
2019-06-08T07:03:19.326Z,943.2
2019-06-08T07:04:20.449Z,943.3
2019-06-08T07:05:21.867Z,943.2
2019-06-08T07:06:22.999Z,943.2
2019-06-08T07:07:24.396Z,943.2
2019-06-08T07:08:25.789Z,943.2
2019-06-08T07:09:27.190Z,943.2
2019-06-08T07:10:27.866Z,943.2
2019-06-08T07:11:29.284Z,943.3
2019-06-08T07:12:30.703Z,943.2
2019-06-08T07:13:31.810Z,943.2
2019-06-08T07:14:33.216Z,943.2
2019-06-08T07:15:41.331Z,943.4
2019-06-08T07:16:39.505Z,943.3
2019-06-08T07:17:36.881Z,943.4
2019-06-08T07:18:38.008Z,943.3
2019-06-08T07:19:39.393Z,943.4
2019-06-08T07:20:40.164Z,943.4
2019-06-08T07:21:42.224Z,943.4
2019-06-08T07:22:42.856Z,943.4
2019-06-08T07:23:43.216Z,943.4
2019-06-08T07:24:44.627Z,943.3
2019-06-08T07:25:46.257Z,943.4
2019-06-08T07:26:46.707Z,943.2
2019-06-08T07:27:48.384Z,943.4
2019-06-08T07:28:49.354Z,943.4
2019-06-08T07:29:50.522Z,943.4
2019-06-08T07:30:53.139Z,943.4
2019-06-08T07:31:55.442Z,943.4
2019-06-08T07:32:52.989Z,943.4
2019-06-08T07:33:53.599Z,943.3
2019-06-08T07:34:55.151Z,943.3
2019-06-08T07:35:56.770Z,943.4
2019-06-08T07:36:56.692Z,943.4
2019-06-08T07:37:59.733Z,943.4
2019-06-08T07:38:59.640Z,941.8
2019-06-08T07:40:00.138Z,943.3
2019-06-08T07:41:07.010Z,943.5
2019-06-08T07:42:01.416Z,943.4
2019-06-08T07:43:02.875Z,943.3
2019-06-08T07:44:04.281Z,943.4
2019-06-08T07:45:05.408Z,943.4
2019-06-08T07:46:06.535Z,943.4
2019-06-08T07:47:07.973Z,943.5
2019-06-08T07:48:09.390Z,943.3
2019-06-08T07:49:10.771Z,943.4
2019-06-08T07:50:14.886Z,943.5
2019-06-08T07:51:12.314Z,943.5
2019-06-08T07:52:13.472Z,943.5
2019-06-08T07:53:14.862Z,943.5
2019-06-08T07:54:16.261Z,943.3
2019-06-08T07:55:17.675Z,943.5
2019-06-08T07:56:18.804Z,943.5
2019-06-08T07:57:19.962Z,943.5
2019-06-08T07:58:21.368Z,943.5
2019-06-08T07:59:25.506Z,942.4
2019-06-08T08:00:23.849Z,943.5
2019-06-08T08:01:41.913Z,943.1
2019-06-08T08:02:25.184Z,943.5
2019-06-08T08:03:26.567Z,943.4
2019-06-08T08:04:27.962Z,943.4
2019-06-08T08:05:29.382Z,943.5
2019-06-08T08:06:30.805Z,943.3
2019-06-08T08:07:32.195Z,943.3
2019-06-08T08:08:33.326Z,943.4
2019-06-08T08:09:34.469Z,943.5
2019-06-08T08:10:35.853Z,943.5
2019-06-08T08:11:36.647Z,943.4
2019-06-08T08:12:37.786Z,943.4
2019-06-08T08:13:39.189Z,943.5
2019-06-08T08:14:46.085Z,943.5
2019-06-08T08:15:41.140Z,943.4
2019-06-08T08:16:42.583Z,943.4
2019-06-08T08:17:44.001Z,943.5
2019-06-08T08:18:45.402Z,943.3
2019-06-08T08:19:46.535Z,943.3
2019-06-08T08:20:49.330Z,943.5
2019-06-08T08:21:51.662Z,943.4
2019-06-08T08:22:52.747Z,943.5
2019-06-08T08:23:53.202Z,943.5
2019-06-08T08:25:03.150Z,943.6
2019-06-08T08:25:55.211Z,943.5
2019-06-08T08:27:01.919Z,943.5
2019-06-08T08:28:00.652Z,943.4
2019-06-08T08:29:03.136Z,943.5
2019-06-08T08:29:59.742Z,943.4
2019-06-08T08:31:01.390Z,943.6
2019-06-08T08:32:01.579Z,943.7
2019-06-08T08:33:07.758Z,943.6
2019-06-08T08:34:11.089Z,943.6
2019-06-08T08:35:08.737Z,943.6
2019-06-08T08:36:07.370Z,943.5
2019-06-08T08:37:14.676Z,943.6
2019-06-08T08:38:07.517Z,943.5
2019-06-08T08:39:08.489Z,943.7
2019-06-08T08:40:08.019Z,943.6
2019-06-08T08:41:18.084Z,943.7
2019-06-08T08:44:10.179Z,943.7
2019-06-08T08:45:13.858Z,943.7
2019-06-08T08:46:07.923Z,943.6
2019-06-08T08:47:09.051Z,943.7
2019-06-08T08:48:33.343Z,943.7
2019-06-08T08:49:18.379Z,942.3
2019-06-08T08:50:12.855Z,943.7
2019-06-08T08:51:14.249Z,943.7
2019-06-08T08:52:17.563Z,943.8
2019-06-08T08:53:18.003Z,942.3
2019-06-08T08:54:18.497Z,943.8
2019-06-08T08:55:20.512Z,943.7
2019-06-08T08:56:23.457Z,943.7
2019-06-08T08:57:23.508Z,943.8
2019-06-08T08:58:24.067Z,943.8
2019-06-08T08:59:23.193Z,943.7
2019-06-08T09:00:24.588Z,943.8
2019-06-08T09:01:28.543Z,943.8
2019-06-08T09:02:27.700Z,943.8
2019-06-08T09:03:39.630Z,943.7
2019-06-08T09:04:28.988Z,943.8
2019-06-08T09:05:30.119Z,943.8
2019-06-08T09:06:33.538Z,943.7
2019-06-08T09:07:33.011Z,943.8
2019-06-08T09:08:37.554Z,943.7
2019-06-08T09:09:35.061Z,943.8
2019-06-08T09:10:38.212Z,943.9
2019-06-08T09:11:38.281Z,943.9
2019-06-08T09:12:37.933Z,943.8
2019-06-08T09:13:39.052Z,943.9
2019-06-08T09:14:41.474Z,943.9
2019-06-08T09:15:43.250Z,943.9
2019-06-08T09:16:42.363Z,943.9
2019-06-08T09:17:43.484Z,943.9
2019-06-08T09:18:44.620Z,943.8
2019-06-08T09:19:48.005Z,943.7
2019-06-08T09:20:47.925Z,944
2019-06-08T09:21:48.353Z,944
2019-06-08T09:22:56.389Z,943.9
2019-06-08T09:23:52.269Z,943.9
2019-06-08T09:24:54.310Z,944
2019-06-08T09:25:55.752Z,943.9
2019-06-08T09:26:54.198Z,944
2019-06-08T09:27:55.259Z,943.9
2019-06-08T09:28:56.161Z,943.9
2019-06-08T09:30:02.859Z,944
2019-06-08T09:31:00.007Z,943.9
2019-06-08T09:32:01.596Z,943.9
2019-06-08T09:33:08.016Z,944
2019-06-08T09:34:20.341Z,944
2019-06-08T09:35:09.901Z,944
2019-06-08T09:36:09.977Z,943.8
2019-06-08T09:37:10.163Z,944
2019-06-08T09:38:05.325Z,944
2019-06-08T09:39:11.183Z,944.1
2019-06-08T09:40:09.114Z,944
2019-06-08T09:41:10.920Z,944
2019-06-08T09:42:10.625Z,943.9
2019-06-08T09:43:19.007Z,944
2019-06-08T09:44:18.456Z,943.8
2019-06-08T09:45:11.775Z,944.1
2019-06-08T09:46:12.256Z,944.1
2019-06-08T09:47:18.329Z,944
2019-06-08T09:48:14.851Z,944.1
2019-06-08T09:49:14.992Z,944
2019-06-08T09:50:18.428Z,944
2019-06-08T09:51:18.632Z,944
2019-06-08T09:52:18.585Z,944
2019-06-08T09:53:42.408Z,944.1
2019-06-08T09:54:19.782Z,944.1
2019-06-08T09:55:20.168Z,944.1
2019-06-08T09:56:20.360Z,943.6
2019-06-08T09:57:24.290Z,944
2019-06-08T09:58:23.649Z,944
2019-06-08T09:59:24.532Z,944.1
2019-06-08T10:00:34.195Z,944.1
2019-06-08T10:01:25.500Z,944
2019-06-08T10:02:28.314Z,944
2019-06-08T10:03:30.723Z,944.1
2019-06-08T10:04:38.655Z,943.3
2019-06-08T10:05:30.073Z,944
2019-06-08T10:06:31.003Z,943.6
2019-06-08T10:07:38.801Z,944
2019-06-08T10:08:33.744Z,944
2019-06-08T10:09:33.860Z,944.2
2019-06-08T10:10:35.017Z,944
2019-06-08T10:11:37.958Z,944.2
2019-06-08T10:12:37.709Z,944.1
2019-06-08T10:13:39.188Z,943.9
2019-06-08T10:14:39.557Z,944.1
2019-06-08T10:15:41.004Z,944
2019-06-08T10:16:43.611Z,944.1
2019-06-08T10:17:43.218Z,944.2
2019-06-08T10:18:43.333Z,944.1
2019-06-08T10:19:44.742Z,944.1
2019-06-08T10:20:48.134Z,944.1
2019-06-08T10:21:48.684Z,944.1
2019-06-08T10:22:50.461Z,944.2
2019-06-08T10:23:49.970Z,944.2
2019-06-08T10:24:55.407Z,944.1
2019-06-08T10:25:59.531Z,943.8
2019-06-08T10:26:53.145Z,944.2
2019-06-08T10:27:55.065Z,944
2019-06-08T10:29:00.035Z,944.1
2019-06-08T10:29:55.426Z,944.1
2019-06-08T10:30:59.605Z,943.7
2019-06-08T10:31:59.384Z,944.1
2019-06-08T10:33:01.516Z,944.2
2019-06-08T10:34:10.801Z,944.2
2019-06-08T10:35:10.382Z,944
2019-06-08T10:36:12.759Z,944.1
2019-06-08T10:37:18.594Z,944.2
2019-06-08T10:38:13.444Z,944.2
2019-06-08T10:39:16.288Z,944.2
2019-06-08T10:40:11.582Z,944.2
2019-06-08T10:41:15.206Z,944.2
2019-06-08T10:42:17.793Z,944.2
2019-06-08T10:43:14.687Z,944.2
2019-06-08T10:44:18.856Z,944.2
2019-06-08T10:45:14.315Z,944.2
2019-06-08T10:46:25.602Z,944
2019-06-08T10:49:14.654Z,944.1
2019-06-08T10:50:13.220Z,944
2019-06-08T10:51:18.158Z,944.2
2019-06-08T10:52:12.161Z,944.1
2019-06-08T10:53:12.522Z,944.2
2019-06-08T10:54:12.600Z,944.1
2019-06-08T10:55:13.745Z,944.2
2019-06-08T10:56:14.862Z,944.2
2019-06-08T10:57:18.102Z,944.1
2019-06-08T10:58:19.330Z,944.2
2019-06-08T10:59:18.730Z,944.2
2019-06-08T11:00:29.588Z,944.1
2019-06-08T11:01:20.620Z,944.1
2019-06-08T11:02:24.244Z,944.2
2019-06-08T11:03:22.621Z,944.2
2019-06-08T11:04:23.736Z,944.1
2019-06-08T11:05:27.883Z,944.1
2019-06-08T11:06:26.342Z,944.1
2019-06-08T11:07:27.955Z,944
2019-06-08T11:08:28.151Z,944.1
2019-06-08T11:09:29.560Z,944
2019-06-08T11:10:30.305Z,944
2019-06-08T11:11:33.808Z,944.1
2019-06-08T11:12:33.735Z,944.1
2019-06-08T11:13:33.860Z,944.1
2019-06-08T11:14:35.259Z,944.1
2019-06-08T11:15:37.812Z,944.1
2019-06-08T11:16:38.491Z,944.1
2019-06-08T11:17:37.987Z,944
2019-06-08T11:18:39.394Z,944.1
2019-06-08T11:19:43.148Z,944
2019-06-08T11:20:40.855Z,944.1
2019-06-08T11:21:41.982Z,944
2019-06-08T11:22:43.130Z,944
2019-06-08T11:23:44.254Z,944
2019-06-08T11:24:45.386Z,944
2019-06-08T11:25:48.775Z,944
2019-06-08T11:26:48.195Z,944
2019-06-08T11:27:49.605Z,944
2019-06-08T11:28:51.139Z,944
2019-06-08T11:29:51.481Z,944
2019-06-08T11:30:53.489Z,943.9
2019-06-08T11:31:58.585Z,944
2019-06-08T11:32:54.892Z,944
2019-06-08T11:33:58.467Z,944
2019-06-08T11:34:59.984Z,943.8
2019-06-08T11:36:01.219Z,944
2019-06-08T11:37:01.169Z,942.6
2019-06-08T11:38:06.639Z,943.9
2019-06-08T11:39:02.525Z,943.9
2019-06-08T11:40:04.527Z,943.7
2019-06-08T11:41:13.440Z,943.5
2019-06-08T11:42:10.635Z,943.8
2019-06-08T11:43:08.605Z,943.9
2019-06-08T11:44:12.330Z,943.9
2019-06-08T11:45:12.540Z,943.9
2019-06-08T11:46:11.850Z,943.8
2019-06-08T11:47:12.931Z,943.9
2019-06-08T11:48:11.852Z,943.9
2019-06-08T11:49:20.468Z,943.8
2019-06-08T11:50:13.568Z,943.8
2019-06-08T11:51:14.039Z,943.9
2019-06-08T11:52:15.180Z,943.8
2019-06-08T11:53:17.933Z,943.8
2019-06-08T11:54:42.456Z,943.8
2019-06-08T11:55:18.631Z,943.8
2019-06-08T11:56:20.026Z,943.9
2019-06-08T11:57:21.153Z,943.8
2019-06-08T11:58:30.734Z,943.8
2019-06-08T11:59:23.153Z,943.7
2019-06-08T12:00:37.863Z,943.8
2019-06-08T12:03:21.545Z,943.9
2019-06-08T12:04:22.040Z,943.7
2019-06-08T12:05:23.167Z,943.7
2019-06-08T12:06:24.294Z,943.7
2019-06-08T12:07:28.219Z,943.8
2019-06-08T12:08:28.351Z,942.9
2019-06-08T12:09:28.626Z,943.8
2019-06-08T12:10:28.846Z,942.5
2019-06-08T12:11:29.970Z,943.8
2019-06-08T12:12:31.106Z,943.7
2019-06-08T12:13:33.300Z,943.8
2019-06-08T12:14:33.707Z,943.7
2019-06-08T12:15:33.864Z,943.7
2019-06-08T12:16:37.682Z,943.8
2019-06-08T12:17:35.854Z,943.7
2019-06-08T12:18:39.885Z,943.6
2019-06-08T12:19:38.517Z,943.6
2019-06-08T12:20:39.915Z,943.8
2019-06-08T12:21:41.310Z,942.3
2019-06-08T12:22:47.827Z,943.8
2019-06-08T12:23:43.345Z,943.8
2019-06-08T12:24:48.027Z,943.8
2019-06-08T12:25:45.384Z,943.7
2019-06-08T12:26:47.673Z,943.7
2019-06-08T12:27:48.806Z,943.8
2019-06-08T12:28:48.762Z,943.6
2019-06-08T12:29:50.388Z,943.6
2019-06-08T12:30:49.801Z,943.7
2019-06-08T12:31:50.927Z,943.6
2019-06-08T12:32:52.059Z,943.6
2019-06-08T12:33:53.197Z,943.7
2019-06-08T12:34:54.185Z,943.5
2019-06-08T12:35:57.775Z,943.6
2019-06-08T12:36:58.159Z,943.6
2019-06-08T12:37:58.140Z,943.5
2019-06-08T12:38:58.648Z,943.6
2019-06-08T12:40:01.173Z,943.6
2019-06-08T12:41:00.503Z,943.6
2019-06-08T12:42:03.694Z,943.6
2019-06-08T12:43:07.573Z,943.5
2019-06-08T12:44:03.731Z,943.5
2019-06-08T12:45:04.221Z,943.5
2019-06-08T12:46:05.355Z,943.6
2019-06-08T12:47:10.041Z,943.5
2019-06-08T12:48:08.725Z,943.6
2019-06-08T12:49:11.213Z,943.5
2019-06-08T12:50:12.105Z,943.5
2019-06-08T12:51:19.369Z,943.5
2019-06-08T12:52:21.926Z,943.4
2019-06-08T12:53:16.265Z,943.5
2019-06-08T12:54:20.668Z,942.6
2019-06-08T12:57:22.087Z,943.5
2019-06-08T12:58:12.986Z,943.5
2019-06-08T12:59:28.140Z,943.5
2019-06-08T13:00:20.055Z,943.5
2019-06-08T13:01:18.904Z,943.6
2019-06-08T13:02:29.035Z,943.6
2019-06-08T13:03:18.766Z,943.5
2019-06-08T13:04:23.120Z,943.5
2019-06-08T13:05:27.587Z,943.5
2019-06-08T13:06:23.749Z,943.7
2019-06-08T13:07:22.324Z,943.7
2019-06-08T13:08:21.901Z,943.6
2019-06-08T13:09:29.560Z,943.6
2019-06-08T13:10:24.358Z,943.5
2019-06-08T13:11:28.210Z,943.7
2019-06-08T13:12:26.456Z,943.6
2019-06-08T13:13:28.187Z,943.7
2019-06-08T13:14:28.753Z,943.6
2019-06-08T13:15:30.890Z,943.7
2019-06-08T13:16:31.098Z,943.6
2019-06-08T13:17:32.222Z,943.6
2019-06-08T13:18:33.006Z,943.6
2019-06-08T13:19:34.407Z,943.4
2019-06-08T13:20:35.810Z,943.5